This is the latest recevied weather packets stored in our database for station/object N8ESC. If no packets are shown the sender has not sent any weather packets the latest 10 day(s).
| Time | Temp. | Humidity | Pressure | Rain* | Wind** | Luminosity | Snow |
|---|---|---|---|---|---|---|---|
| 1777761974 | 8.33° C | 59% | 1011.8 hPa | 0 mm | - | 223 W/m² | - |
| 1777761671 | 8.33° C | 59% | 1011.7 hPa | 0 mm | - | 229 W/m² | - |
| 1777761369 | 7.78° C | 60% | 1011.9 hPa | 0 mm | - | 248 W/m² | - |
| 1777761068 | 7.78° C | 59% | 1011.7 hPa | 0 mm | - | 209 W/m² | - |
| 1777760764 | 8.33° C | 58% | 1011.8 hPa | 0 mm | - | 159 W/m² | - |
| 1777760461 | 8.33° C | 59% | 1011.9 hPa | 0 mm | - | 287 W/m² | - |
| 1777760156 | 8.89° C | 57% | 1011.8 hPa | 0 mm | - | 295 W/m² | - |
| 1777759854 | 8.89° C | 57% | 1011.7 hPa | 0 mm | - | 243 W/m² | - |
| 1777759549 | 7.78° C | 60% | 1012 hPa | 0 mm | - | 339 W/m² | - |
| 1777759246 | 8.33° C | 59% | 1012 hPa | 0 mm | - | 280 W/m² | - |
| 1777758943 | 7.78° C | 59% | 1011.9 hPa | 0 mm | - | 374 W/m² | - |
| 1777758640 | 7.78° C | 59% | 1012.1 hPa | 0 mm | - | 415 W/m² | - |
| 1777758337 | 8.33° C | 58% | 1012 hPa | 0 mm | - | 121 W/m² | - |
| 1777758035 | 8.89° C | 55% | 1012.1 hPa | 0 mm | - | 344 W/m² | - |
| 1777757731 | 9.44° C | 54% | 1012.1 hPa | 0 mm | - | 390 W/m² | - |
| 1777757429 | 8.89° C | 54% | 1012.1 hPa | 0 mm | - | 389 W/m² | - |
| 1777757128 | 8.89° C | 54% | 1012.2 hPa | 0 mm | - | 426 W/m² | - |
| 1777756825 | 9.44° C | 54% | 1012.2 hPa | 0 mm | - | 451 W/m² | - |
| 1777756521 | 8.89° C | 54% | 1012.2 hPa | 0 mm | - | 446 W/m² | - |
| 1777756218 | 8.89° C | 53% | 1012.3 hPa | 0 mm | - | 431 W/m² | - |
| 1777755915 | 8.89° C | 53% | 1012.2 hPa | 0 mm | - | 518 W/m² | - |
| 1777755612 | 8.33° C | 51% | 1012.3 hPa | 0 mm | - | 406 W/m² | - |
| 1777755308 | 8.89° C | 51% | 1012.3 hPa | 0 mm | - | 210 W/m² | - |
| 1777755006 | 8.89° C | 51% | 1012.5 hPa | 0 mm | - | 624 W/m² | - |
| 1777754702 | 8.89° C | 51% | 1012.5 hPa | 0 mm | - | 574 W/m² | - |
* Rain latest hour (hover to see other rain measurements)
** Current wind speed in m/s (hover to see current wind gust speed)